createdAt,value
2023-05-24T00:00:13.343Z,31.00
2023-05-24T00:02:42.752Z,31.00
2023-05-24T00:05:11.054Z,31.00
2023-05-24T00:07:38.911Z,31.00
2023-05-24T00:10:07.803Z,31.00
2023-05-24T00:12:35.539Z,31.00
2023-05-24T00:15:03.403Z,31.00
2023-05-24T00:17:34.738Z,31.00
2023-05-24T00:20:03.832Z,31.00
2023-05-24T00:22:32.819Z,31.00
2023-05-24T00:25:00.499Z,31.00
2023-05-24T00:27:28.170Z,30.90
2023-05-24T00:29:55.894Z,30.90
2023-05-24T00:32:23.586Z,30.90
2023-05-24T00:34:52.659Z,30.90
2023-05-24T00:37:20.315Z,30.90
2023-05-24T00:39:48.856Z,30.90
2023-05-24T00:42:16.577Z,30.90
2023-05-24T00:44:44.324Z,30.90
2023-05-24T00:47:12.084Z,30.90
2023-05-24T00:49:40.165Z,30.90
2023-05-24T00:52:09.784Z,30.90
2023-05-24T00:54:38.437Z,30.90
2023-05-24T00:57:06.681Z,30.90
2023-05-24T00:59:34.626Z,30.90
2023-05-24T01:02:02.554Z,30.90
2023-05-24T01:04:32.469Z,30.90
2023-05-24T01:07:10.787Z,30.90
2023-05-24T01:09:56.591Z,30.90
2023-05-24T01:12:29.714Z,30.90
2023-05-24T01:15:06.214Z,30.90
2023-05-24T01:17:39.689Z,30.90
2023-05-24T01:20:10.233Z,30.90
2023-05-24T01:23:07.267Z,30.80
2023-05-24T01:26:15.616Z,30.80
2023-05-24T01:28:46.229Z,30.80
2023-05-24T01:31:16.038Z,30.80
2023-05-24T01:33:44.571Z,30.80
2023-05-24T01:36:12.428Z,30.80
2023-05-24T01:38:41.133Z,30.80
2023-05-24T01:41:19.783Z,30.80
2023-05-24T01:43:54.384Z,30.80
2023-05-24T01:46:30.851Z,30.80
2023-05-24T01:49:06.712Z,30.80
2023-05-24T01:51:41.134Z,30.80
2023-05-24T01:54:09.711Z,30.80
2023-05-24T01:56:38.966Z,30.80
2023-05-24T01:59:08.938Z,30.80
2023-05-24T02:01:37.378Z,30.80
2023-05-24T02:04:05.524Z,30.80
2023-05-24T02:06:33.187Z,30.80
2023-05-24T02:09:00.843Z,30.80
2023-05-24T02:11:28.850Z,30.80
2023-05-24T02:13:56.509Z,30.80
2023-05-24T02:16:26.769Z,30.80
2023-05-24T02:18:54.664Z,30.70
2023-05-24T02:21:23.519Z,30.70
2023-05-24T02:23:51.223Z,30.70
2023-05-24T02:26:19.485Z,30.70
2023-05-24T02:28:48.251Z,30.70
2023-05-24T02:31:16.041Z,30.70
2023-05-24T02:33:45.351Z,30.70
2023-05-24T02:36:13.450Z,30.70
2023-05-24T02:38:41.401Z,30.70
2023-05-24T02:41:09.254Z,30.70
2023-05-24T02:43:36.944Z,30.70
2023-05-24T02:46:04.701Z,30.70
2023-05-24T02:48:32.373Z,30.70
2023-05-24T02:51:03.208Z,30.70
2023-05-24T02:53:31.365Z,30.70
2023-05-24T02:55:59.266Z,30.70
2023-05-24T02:58:29.035Z,30.70
2023-05-24T03:00:57.075Z,30.70
2023-05-24T03:03:24.865Z,30.60
2023-05-24T03:05:52.713Z,30.60
2023-05-24T03:08:21.737Z,30.60
2023-05-24T03:10:49.437Z,30.60
2023-05-24T03:13:17.108Z,30.60
2023-05-24T03:15:44.753Z,30.60
2023-05-24T03:18:12.437Z,30.60
2023-05-24T03:20:40.287Z,30.60
2023-05-24T03:23:09.612Z,30.60
2023-05-24T03:25:38.700Z,30.60
2023-05-24T03:28:07.085Z,30.60
2023-05-24T03:30:34.942Z,30.60
2023-05-24T03:33:02.682Z,30.60
2023-05-24T03:35:30.393Z,30.60
2023-05-24T03:37:58.152Z,30.60
2023-05-24T03:40:28.661Z,30.60
2023-05-24T03:42:57.669Z,30.60
2023-05-24T03:45:37.809Z,30.60
2023-05-24T03:48:07.505Z,30.60
2023-05-24T03:50:35.669Z,30.50
2023-05-24T03:53:03.424Z,30.50
2023-05-24T03:55:31.152Z,30.50
2023-05-24T03:58:00.182Z,30.50
2023-05-24T04:00:28.100Z,30.50
2023-05-24T04:02:56.226Z,30.50
2023-05-24T04:05:27.169Z,30.50
2023-05-24T04:07:54.956Z,30.50
2023-05-24T04:10:22.906Z,30.50
2023-05-24T04:12:50.645Z,30.50
2023-05-24T04:15:19.685Z,30.50
2023-05-24T04:17:47.760Z,30.50
2023-05-24T04:20:15.547Z,30.50
2023-05-24T04:22:43.225Z,30.50
2023-05-24T04:25:11.182Z,30.50
2023-05-24T04:27:38.848Z,30.50
2023-05-24T04:30:09.232Z,30.50
2023-05-24T04:32:38.327Z,30.50
2023-05-24T04:35:07.227Z,30.50
2023-05-24T04:37:35.070Z,30.50
2023-05-24T04:40:04.181Z,30.50
2023-05-24T04:42:32.564Z,30.50
2023-05-24T04:45:00.324Z,30.50
2023-05-24T04:47:28.316Z,30.50
2023-05-24T04:49:57.319Z,30.40
2023-05-24T04:52:25.031Z,30.40
2023-05-24T04:54:52.900Z,30.40
2023-05-24T04:57:20.624Z,30.40
2023-05-24T04:59:48.872Z,30.40
2023-05-24T05:02:16.646Z,30.40
2023-05-24T05:04:44.315Z,30.40
2023-05-24T05:07:13.466Z,30.40
2023-05-24T05:09:41.249Z,30.40
2023-05-24T05:12:09.303Z,30.40
2023-05-24T05:14:36.913Z,30.40
2023-05-24T05:17:04.692Z,30.40
2023-05-24T05:19:32.349Z,30.40
2023-05-24T05:22:00.031Z,30.40
2023-05-24T05:24:29.052Z,30.40
2023-05-24T05:26:56.711Z,30.40
2023-05-24T05:29:24.713Z,30.40
2023-05-24T05:31:52.501Z,30.40
2023-05-24T05:34:21.225Z,30.40
2023-05-24T05:36:49.019Z,30.40
2023-05-24T05:39:16.706Z,30.40
2023-05-24T05:41:46.409Z,30.40
2023-05-24T05:44:15.344Z,30.40
2023-05-24T05:46:46.015Z,30.40
2023-05-24T05:49:13.836Z,30.30
2023-05-24T05:51:41.569Z,30.40
2023-05-24T05:54:14.382Z,30.30
2023-05-24T05:56:45.491Z,30.30
2023-05-24T05:59:15.601Z,30.30
2023-05-24T06:01:43.908Z,30.30
2023-05-24T06:04:11.676Z,30.30
2023-05-24T06:06:39.376Z,30.30
2023-05-24T06:09:09.219Z,30.30
2023-05-24T06:11:36.855Z,30.30
2023-05-24T06:14:04.506Z,30.30
2023-05-24T06:16:33.635Z,30.30
2023-05-24T06:19:05.859Z,30.30
2023-05-24T06:21:34.025Z,30.30
2023-05-24T06:24:02.686Z,30.30
2023-05-24T06:26:30.486Z,30.30
2023-05-24T06:28:58.178Z,30.30
2023-05-24T06:31:25.831Z,30.30
2023-05-24T06:34:03.874Z,30.30
2023-05-24T06:36:34.196Z,30.30
2023-05-24T06:39:01.918Z,30.30
2023-05-24T06:41:29.907Z,30.30
2023-05-24T06:43:57.562Z,30.30
2023-05-24T06:46:25.295Z,30.30
2023-05-24T06:48:53.097Z,30.30
2023-05-24T06:51:22.536Z,30.30
2023-05-24T06:53:50.275Z,30.30
2023-05-24T06:56:18.173Z,30.30
2023-05-24T06:58:45.837Z,30.30
2023-05-24T07:01:14.525Z,30.30
2023-05-24T07:03:42.686Z,30.30
2023-05-24T07:06:14.091Z,30.30
2023-05-24T07:08:43.314Z,30.30
2023-05-24T07:11:11.429Z,30.30
2023-05-24T07:13:39.176Z,30.20
2023-05-24T07:16:07.931Z,30.20
2023-05-24T07:18:35.790Z,30.20
2023-05-24T07:21:03.559Z,30.20
2023-05-24T07:23:31.368Z,30.20
2023-05-24T07:26:00.398Z,30.20
2023-05-24T07:28:28.072Z,30.20
2023-05-24T07:30:55.724Z,30.20
2023-05-24T07:33:23.831Z,30.20
2023-05-24T07:35:52.417Z,30.20
2023-05-24T07:38:20.161Z,30.20
2023-05-24T07:40:47.970Z,30.20
2023-05-24T07:43:16.996Z,30.10
2023-05-24T07:45:44.951Z,30.10
2023-05-24T07:48:12.785Z,30.10
2023-05-24T07:50:40.696Z,30.10
2023-05-24T07:53:08.616Z,30.10
2023-05-24T07:55:36.503Z,30.10
2023-05-24T07:58:04.207Z,30.10
2023-05-24T08:00:33.724Z,30.10
2023-05-24T08:03:01.869Z,30.00
2023-05-24T08:05:30.080Z,30.00
2023-05-24T08:07:58.078Z,30.00
2023-05-24T08:10:26.158Z,30.00
2023-05-24T08:12:56.071Z,30.00
2023-05-24T08:15:23.980Z,30.00
2023-05-24T08:17:53.023Z,30.00
2023-05-24T08:20:20.983Z,30.00
2023-05-24T08:22:49.353Z,29.90
2023-05-24T08:25:17.057Z,29.90
2023-05-24T08:27:44.883Z,29.90
2023-05-24T08:30:14.189Z,29.90
2023-05-24T08:32:41.995Z,29.90
2023-05-24T08:35:21.030Z,29.90
2023-05-24T08:37:49.859Z,29.90
2023-05-24T08:40:18.013Z,29.90
2023-05-24T08:42:46.945Z,29.80
2023-05-24T08:45:15.829Z,29.80
2023-05-24T08:47:43.854Z,29.80
2023-05-24T08:50:14.144Z,29.80
2023-05-24T08:52:43.506Z,29.80
2023-05-24T08:55:12.421Z,29.80
2023-05-24T08:57:41.809Z,29.80
2023-05-24T09:00:12.945Z,29.80
2023-05-24T09:02:42.485Z,29.80
2023-05-24T09:05:12.046Z,29.80
2023-05-24T09:07:41.829Z,29.80
2023-05-24T09:10:11.152Z,29.80
2023-05-24T09:12:40.140Z,29.80
2023-05-24T09:15:09.564Z,29.80
2023-05-24T09:17:38.506Z,29.80
2023-05-24T09:20:09.050Z,29.80
2023-05-24T09:22:41.162Z,29.80
2023-05-24T09:25:13.871Z,29.80
2023-05-24T09:27:41.839Z,29.80
2023-05-24T09:30:12.550Z,29.80
2023-05-24T09:32:41.238Z,29.80
2023-05-24T09:35:10.935Z,29.80
2023-05-24T09:37:40.451Z,29.80
2023-05-24T09:40:20.852Z,29.80
2023-05-24T09:42:51.528Z,29.80
2023-05-24T09:45:19.346Z,29.80
2023-05-24T09:47:47.146Z,29.80
2023-05-24T09:50:16.572Z,29.80
2023-05-24T09:52:45.056Z,29.80
2023-05-24T09:55:13.839Z,29.80
2023-05-24T09:57:45.329Z,29.80
2023-05-24T10:00:16.982Z,29.80
2023-05-24T10:02:53.385Z,29.80
2023-05-24T10:05:22.068Z,29.80
2023-05-24T10:07:49.837Z,29.80
2023-05-24T10:10:17.951Z,29.80
2023-05-24T10:12:47.843Z,29.90
2023-05-24T10:15:15.650Z,29.90
2023-05-24T10:17:43.394Z,29.90
2023-05-24T10:20:12.922Z,29.90
2023-05-24T10:22:44.424Z,29.90
2023-05-24T10:25:18.069Z,29.90
2023-05-24T10:27:49.109Z,29.80
2023-05-24T10:30:24.350Z,29.90
2023-05-24T10:32:54.655Z,29.90
2023-05-24T10:35:23.282Z,29.90
2023-05-24T10:37:51.167Z,29.90
2023-05-24T10:40:20.060Z,29.90
2023-05-24T10:42:49.879Z,29.90
2023-05-24T10:45:32.778Z,29.90
2023-05-24T10:48:03.093Z,29.90
2023-05-24T10:50:31.057Z,29.90
2023-05-24T10:53:12.986Z,29.90
2023-05-24T10:55:54.419Z,29.90
2023-05-24T10:58:27.861Z,29.90
2023-05-24T11:00:56.148Z,29.90
2023-05-24T11:03:27.268Z,29.90
2023-05-24T11:05:55.829Z,29.90
2023-05-24T11:08:33.214Z,29.90
2023-05-24T11:11:19.177Z,29.90
2023-05-24T11:13:57.797Z,29.90
2023-05-24T11:16:36.455Z,29.90
2023-05-24T11:19:13.087Z,29.90
2023-05-24T11:21:41.969Z,29.90
2023-05-24T11:24:09.818Z,29.90
2023-05-24T11:26:37.623Z,29.90
2023-05-24T11:29:07.409Z,29.90
2023-05-24T11:31:42.407Z,29.90
2023-05-24T11:34:11.854Z,29.90
2023-05-24T11:36:39.731Z,29.90
2023-05-24T11:39:09.590Z,29.90
2023-05-24T11:41:38.975Z,29.90
2023-05-24T11:44:09.990Z,29.90
2023-05-24T11:46:39.114Z,29.90
2023-05-24T11:49:07.480Z,30.00
2023-05-24T11:51:37.504Z,29.90
2023-05-24T11:54:05.450Z,29.90
2023-05-24T11:56:34.070Z,30.00
2023-05-24T11:59:15.648Z,29.90
2023-05-24T12:01:43.665Z,30.00
2023-05-24T12:04:12.261Z,29.90
2023-05-24T12:06:42.185Z,29.90
2023-05-24T12:09:13.273Z,30.00
2023-05-24T12:11:42.130Z,29.90
2023-05-24T12:14:14.839Z,30.00
2023-05-24T12:16:43.978Z,30.00
2023-05-24T12:19:24.613Z,30.00
2023-05-24T12:22:01.671Z,30.00
2023-05-24T12:24:29.553Z,30.00
2023-05-24T12:27:01.170Z,30.00
2023-05-24T12:29:34.025Z,30.00
2023-05-24T12:32:01.895Z,30.00
2023-05-24T12:34:30.155Z,30.00
2023-05-24T12:36:57.942Z,30.00
2023-05-24T12:39:31.205Z,30.00
2023-05-24T12:42:01.599Z,30.00
2023-05-24T12:44:32.363Z,30.00
2023-05-24T12:47:00.318Z,30.00
2023-05-24T12:49:28.526Z,30.00
2023-05-24T12:51:57.684Z,30.00
2023-05-24T12:54:27.020Z,30.00
2023-05-24T12:56:56.909Z,30.00
2023-05-24T12:59:25.279Z,30.00
2023-05-24T13:01:54.274Z,30.00
2023-05-24T13:04:26.380Z,30.00
2023-05-24T13:06:54.386Z,30.00
2023-05-24T13:09:23.521Z,30.00
2023-05-24T13:11:52.161Z,30.00
2023-05-24T13:14:20.809Z,30.00
2023-05-24T13:16:49.215Z,30.00
2023-05-24T13:19:18.769Z,30.00
2023-05-24T13:21:46.693Z,30.00
2023-05-24T13:24:16.655Z,30.00
2023-05-24T13:26:44.476Z,30.00
2023-05-24T13:31:43.611Z,30.00
2023-05-24T13:34:11.724Z,30.00
2023-05-24T13:36:40.851Z,30.00
2023-05-24T13:41:41.436Z,30.00
2023-05-24T13:44:09.901Z,30.00
2023-05-24T13:46:38.353Z,30.00
2023-05-24T13:49:06.657Z,30.00
2023-05-24T13:51:34.396Z,30.00
2023-05-24T13:54:03.750Z,30.00
2023-05-24T13:56:33.186Z,30.00
2023-05-24T13:59:01.661Z,30.00
2023-05-24T14:01:29.532Z,30.00
2023-05-24T14:03:57.300Z,30.00
2023-05-24T14:06:25.111Z,30.00
2023-05-24T14:08:53.097Z,30.00
2023-05-24T14:11:22.567Z,30.00
2023-05-24T14:16:21.343Z,30.00
2023-05-24T14:18:50.261Z,30.00
2023-05-24T14:21:19.063Z,30.00
2023-05-24T14:23:46.776Z,30.00
2023-05-24T14:26:14.673Z,30.00
2023-05-24T14:28:43.665Z,30.00
2023-05-24T14:31:11.454Z,30.00
2023-05-24T14:33:39.187Z,30.00
2023-05-24T14:36:07.563Z,30.00
2023-05-24T14:38:35.422Z,30.00
2023-05-24T14:41:03.703Z,30.00
2023-05-24T14:43:31.487Z,30.00
2023-05-24T14:46:00.615Z,30.00
2023-05-24T14:48:28.372Z,30.00
2023-05-24T14:50:56.096Z,30.00
2023-05-24T14:53:23.802Z,30.00
2023-05-24T14:55:53.813Z,30.00
2023-05-24T14:58:21.968Z,30.00
2023-05-24T15:00:50.133Z,30.00
2023-05-24T15:03:20.002Z,30.00
2023-05-24T15:05:47.833Z,30.00
2023-05-24T15:08:16.823Z,30.00
2023-05-24T15:10:45.370Z,30.00
2023-05-24T15:13:13.593Z,30.00
2023-05-24T15:15:42.021Z,30.00
2023-05-24T15:18:09.908Z,30.00
2023-05-24T15:20:39.121Z,30.00
2023-05-24T15:23:10.443Z,30.00
2023-05-24T15:25:38.436Z,30.00
2023-05-24T15:28:06.164Z,30.00
2023-05-24T15:30:33.860Z,30.00
2023-05-24T15:33:01.660Z,30.00
2023-05-24T15:35:29.325Z,30.00
2023-05-24T15:37:58.337Z,30.00
2023-05-24T15:40:26.247Z,30.00
2023-05-24T15:42:54.071Z,30.00
2023-05-24T15:45:21.990Z,30.00
2023-05-24T15:47:49.924Z,30.00
2023-05-24T15:50:20.250Z,30.00
2023-05-24T15:52:51.531Z,30.00
2023-05-24T15:55:20.959Z,30.00
2023-05-24T15:57:48.726Z,30.00
2023-05-24T16:00:17.173Z,29.90
2023-05-24T16:02:45.432Z,30.00
2023-05-24T16:05:13.154Z,30.00
2023-05-24T16:07:40.871Z,30.00
2023-05-24T16:10:09.070Z,29.90
2023-05-24T16:12:38.098Z,30.00
2023-05-24T16:15:06.549Z,29.90
2023-05-24T16:17:34.285Z,29.90
2023-05-24T16:20:02.105Z,30.00
2023-05-24T16:22:29.822Z,29.90
2023-05-24T16:24:57.530Z,29.90
2023-05-24T16:27:25.287Z,29.90
2023-05-24T16:29:54.316Z,29.90
2023-05-24T16:32:22.070Z,29.90
2023-05-24T16:34:56.718Z,29.90
2023-05-24T16:37:25.133Z,29.90
2023-05-24T16:39:52.888Z,29.90
2023-05-24T16:42:20.747Z,29.90
2023-05-24T16:44:48.420Z,29.90
2023-05-24T16:47:17.590Z,29.90
2023-05-24T16:49:45.389Z,29.90
2023-05-24T16:52:13.056Z,29.90
2023-05-24T16:54:40.804Z,29.90
2023-05-24T16:57:08.497Z,29.90
2023-05-24T16:59:36.242Z,29.90
2023-05-24T17:02:04.228Z,29.90
2023-05-24T17:04:33.412Z,29.90
2023-05-24T17:07:01.151Z,29.90
2023-05-24T17:09:29.077Z,29.90
2023-05-24T17:11:56.793Z,29.90
2023-05-24T17:14:24.524Z,29.90
2023-05-24T17:16:52.248Z,29.90
2023-05-24T17:19:21.008Z,29.90
2023-05-24T17:21:50.067Z,29.90
2023-05-24T17:24:17.799Z,29.90
2023-05-24T17:26:45.488Z,29.90
2023-05-24T17:29:13.159Z,29.90
2023-05-24T17:31:41.615Z,29.90
2023-05-24T17:34:09.345Z,29.90
2023-05-24T17:36:37.587Z,29.90
2023-05-24T17:39:06.699Z,29.90
2023-05-24T17:41:34.636Z,29.90
2023-05-24T17:44:02.351Z,29.90
2023-05-24T17:46:30.202Z,29.90
2023-05-24T17:48:58.167Z,29.90
2023-05-24T17:51:26.046Z,29.90
2023-05-24T17:53:53.730Z,29.90
2023-05-24T17:56:23.370Z,29.90
2023-05-24T17:58:51.339Z,29.90
2023-05-24T18:01:19.423Z,29.90
2023-05-24T18:03:48.600Z,29.90
2023-05-24T18:06:16.435Z,29.90
2023-05-24T18:08:44.259Z,29.90
2023-05-24T18:11:13.250Z,29.90
2023-05-24T18:13:43.526Z,29.90
2023-05-24T18:16:12.186Z,29.90
2023-05-24T18:18:40.171Z,29.90
2023-05-24T18:21:09.537Z,29.90
2023-05-24T18:23:38.367Z,29.90
2023-05-24T18:26:07.918Z,29.90
2023-05-24T18:28:37.510Z,29.90
2023-05-24T18:31:08.435Z,29.90
2023-05-24T18:33:36.321Z,29.90
2023-05-24T18:36:05.785Z,29.90
2023-05-24T18:38:34.572Z,29.90
2023-05-24T18:41:05.770Z,29.90
2023-05-24T18:43:34.140Z,29.90
2023-05-24T18:46:02.341Z,29.90
2023-05-24T18:48:31.371Z,29.90
2023-05-24T18:50:59.140Z,29.90
2023-05-24T18:53:26.847Z,29.90
2023-05-24T18:55:54.520Z,29.90
2023-05-24T18:58:22.171Z,29.90
2023-05-24T19:00:50.551Z,29.90
2023-05-24T19:03:18.415Z,29.90
2023-05-24T19:05:47.725Z,29.80
2023-05-24T19:08:15.588Z,29.90
2023-05-24T19:10:43.329Z,29.80
2023-05-24T19:13:11.011Z,29.80
2023-05-24T19:15:38.726Z,29.80
2023-05-24T19:18:07.164Z,29.80
2023-05-24T19:20:35.032Z,29.80
2023-05-24T19:23:04.290Z,29.80
2023-05-24T19:25:32.177Z,29.80
2023-05-24T19:28:00.904Z,29.80
2023-05-24T19:30:28.939Z,29.80
2023-05-24T19:32:56.667Z,29.80
2023-05-24T19:35:24.387Z,29.80
2023-05-24T19:37:53.241Z,29.80
2023-05-24T19:40:22.307Z,29.80
2023-05-24T19:42:50.042Z,29.80
2023-05-24T19:45:17.723Z,29.80
2023-05-24T19:47:45.972Z,29.80
2023-05-24T19:50:13.790Z,29.80
2023-05-24T19:52:41.439Z,29.80
2023-05-24T19:55:10.585Z,29.70
2023-05-24T19:57:39.611Z,29.70
2023-05-24T20:00:08.601Z,29.70
2023-05-24T20:02:36.807Z,29.70
2023-05-24T20:05:05.173Z,29.70
2023-05-24T20:07:32.872Z,29.70
2023-05-24T20:10:00.881Z,29.70
2023-05-24T20:12:30.728Z,29.70
2023-05-24T20:14:59.735Z,29.70
2023-05-24T20:17:27.483Z,29.70
2023-05-24T20:19:55.381Z,29.70
2023-05-24T20:22:23.119Z,29.70
2023-05-24T20:24:50.889Z,29.70
2023-05-24T20:27:18.639Z,29.70
2023-05-24T20:29:46.678Z,29.70
2023-05-24T20:32:16.346Z,29.70
2023-05-24T20:34:44.032Z,29.70
2023-05-24T20:37:11.747Z,29.70
2023-05-24T20:39:39.419Z,29.70
2023-05-24T20:42:08.160Z,29.70
2023-05-24T20:44:35.905Z,29.70
2023-05-24T20:47:03.616Z,29.70
2023-05-24T20:49:32.890Z,29.70
2023-05-24T20:52:00.592Z,29.70
2023-05-24T20:54:28.417Z,29.70
2023-05-24T20:56:56.227Z,29.70
2023-05-24T20:59:24.157Z,29.70
2023-05-24T21:01:52.082Z,29.70
2023-05-24T21:04:20.644Z,29.70
2023-05-24T21:06:49.886Z,29.70
2023-05-24T21:09:17.577Z,29.70
2023-05-24T21:11:45.254Z,29.70
2023-05-24T21:14:13.180Z,29.70
2023-05-24T21:16:41.043Z,29.70
2023-05-24T21:19:09.124Z,29.70
2023-05-24T21:21:37.665Z,29.70
2023-05-24T21:24:07.227Z,29.70
2023-05-24T21:26:34.966Z,29.70
2023-05-24T21:29:02.743Z,29.70
2023-05-24T21:31:32.129Z,29.60
2023-05-24T21:34:00.255Z,29.70
2023-05-24T21:36:27.951Z,29.60
2023-05-24T21:38:56.911Z,29.70
2023-05-24T21:41:26.803Z,29.70
2023-05-24T21:43:54.546Z,29.70
2023-05-24T21:46:22.317Z,29.70
2023-05-24T21:48:50.285Z,29.70
2023-05-24T21:51:18.006Z,29.70
2023-05-24T21:53:46.069Z,29.70
2023-05-24T21:56:13.740Z,29.70
2023-05-24T21:58:42.734Z,29.60
2023-05-24T22:01:10.518Z,29.60
2023-05-24T22:03:38.228Z,29.60
2023-05-24T22:06:06.134Z,29.60
2023-05-24T22:08:33.932Z,29.60
2023-05-24T22:11:01.604Z,29.60
2023-05-24T22:13:29.260Z,29.60
2023-05-24T22:15:58.668Z,29.60
2023-05-24T22:18:28.294Z,29.60
2023-05-24T22:20:58.210Z,29.60
2023-05-24T22:23:26.441Z,29.60
2023-05-24T22:25:54.147Z,29.60
2023-05-24T22:28:21.830Z,29.60
2023-05-24T22:30:49.552Z,29.60
2023-05-24T22:33:18.591Z,29.60
2023-05-24T22:35:46.340Z,29.60
2023-05-24T22:38:13.983Z,29.60
2023-05-24T22:40:42.306Z,29.60
2023-05-24T22:43:10.126Z,29.60
2023-05-24T22:45:38.141Z,29.60
2023-05-24T22:48:05.925Z,29.60
2023-05-24T22:50:34.991Z,29.60
2023-05-24T22:53:02.666Z,29.60
2023-05-24T22:55:30.337Z,29.60
2023-05-24T22:57:57.983Z,29.60
2023-05-24T23:00:26.565Z,29.60
2023-05-24T23:02:54.447Z,29.60
2023-05-24T23:05:23.999Z,29.60
2023-05-24T23:07:54.982Z,29.60
2023-05-24T23:10:22.849Z,29.60
2023-05-24T23:12:50.523Z,29.60
2023-05-24T23:15:18.416Z,29.60
2023-05-24T23:17:46.374Z,29.50
2023-05-24T23:20:14.966Z,29.60
2023-05-24T23:22:42.707Z,29.50
2023-05-24T23:25:12.097Z,29.50
2023-05-24T23:27:40.639Z,29.50
2023-05-24T23:30:09.177Z,29.50
2023-05-24T23:32:36.927Z,29.50
2023-05-24T23:35:04.865Z,29.50
2023-05-24T23:37:32.583Z,29.50
2023-05-24T23:40:02.431Z,29.50
2023-05-24T23:42:31.458Z,29.50
2023-05-24T23:44:59.154Z,29.50
2023-05-24T23:47:26.877Z,29.50
2023-05-24T23:49:54.731Z,29.50
2023-05-24T23:52:22.393Z,29.50
2023-05-24T23:54:50.049Z,29.50
2023-05-24T23:57:20.056Z,29.50
2023-05-24T23:59:49.114Z,29.50
